sensor_id;sensor_type;location;lat;lon;timestamp;temperature;humidity
14884;DHT22;7534;50.762;7.000;2023-07-28T00:02:24;17.70;99.90
14884;DHT22;7534;50.762;7.000;2023-07-28T00:04:50;17.80;99.90
14884;DHT22;7534;50.762;7.000;2023-07-28T00:07:17;17.90;99.90
14884;DHT22;7534;50.762;7.000;2023-07-28T00:09:43;17.80;99.90
14884;DHT22;7534;50.762;7.000;2023-07-28T00:12:09;18.00;99.90
14884;DHT22;7534;50.762;7.000;2023-07-28T00:14:35;17.90;99.90
14884;DHT22;7534;50.762;7.000;2023-07-28T00:17:01;18.00;99.90
14884;DHT22;7534;50.762;7.000;2023-07-28T00:19:27;18.10;99.90
14884;DHT22;7534;50.762;7.000;2023-07-28T00:21:52;18.10;99.90
14884;DHT22;7534;50.762;7.000;2023-07-28T00:24:18;18.20;99.90
14884;DHT22;7534;50.762;7.000;2023-07-28T00:26:44;18.20;99.90
14884;DHT22;7534;50.762;7.000;2023-07-28T00:29:11;18.30;99.90
14884;DHT22;7534;50.762;7.000;2023-07-28T00:31:37;18.40;99.90
14884;DHT22;7534;50.762;7.000;2023-07-28T00:34:03;18.40;99.90
14884;DHT22;7534;50.762;7.000;2023-07-28T00:36:30;18.30;99.90
14884;DHT22;7534;50.762;7.000;2023-07-28T00:38:56;18.40;99.90
14884;DHT22;7534;50.762;7.000;2023-07-28T00:41:23;18.40;99.90
14884;DHT22;7534;50.762;7.000;2023-07-28T00:43:49;18.40;99.90
14884;DHT22;7534;50.762;7.000;2023-07-28T00:46:16;18.40;99.90
14884;DHT22;7534;50.762;7.000;2023-07-28T00:48:43;18.40;99.90
14884;DHT22;7534;50.762;7.000;2023-07-28T00:51:10;18.40;99.90
14884;DHT22;7534;50.762;7.000;2023-07-28T00:53:37;18.40;99.90
14884;DHT22;7534;50.762;7.000;2023-07-28T00:56:07;18.40;99.90
14884;DHT22;7534;50.762;7.000;2023-07-28T00:58:37;18.40;99.90
14884;DHT22;7534;50.762;7.000;2023-07-28T01:01:05;18.40;99.90
14884;DHT22;7534;50.762;7.000;2023-07-28T01:03:31;18.40;99.90
14884;DHT22;7534;50.762;7.000;2023-07-28T01:06:20;18.50;99.90
14884;DHT22;7534;50.762;7.000;2023-07-28T01:09:03;18.40;99.90
14884;DHT22;7534;50.762;7.000;2023-07-28T01:11:35;18.50;99.90
14884;DHT22;7534;50.762;7.000;2023-07-28T01:14:00;18.50;99.90
14884;DHT22;7534;50.762;7.000;2023-07-28T01:16:26;18.50;99.90
14884;DHT22;7534;50.762;7.000;2023-07-28T01:18:52;18.50;99.90
14884;DHT22;7534;50.762;7.000;2023-07-28T01:21:21;18.50;99.90
14884;DHT22;7534;50.762;7.000;2023-07-28T01:24:09;18.40;99.90
14884;DHT22;7534;50.762;7.000;2023-07-28T01:26:43;18.50;99.90
14884;DHT22;7534;50.762;7.000;2023-07-28T01:29:11;18.40;99.90
14884;DHT22;7534;50.762;7.000;2023-07-28T01:31:40;18.50;99.90
14884;DHT22;7534;50.762;7.000;2023-07-28T01:34:06;18.50;99.90
14884;DHT22;7534;50.762;7.000;2023-07-28T01:36:32;18.50;99.90
14884;DHT22;7534;50.762;7.000;2023-07-28T01:38:58;18.50;99.90
14884;DHT22;7534;50.762;7.000;2023-07-28T01:41:23;18.50;99.90
14884;DHT22;7534;50.762;7.000;2023-07-28T01:43:49;18.40;99.90
14884;DHT22;7534;50.762;7.000;2023-07-28T01:46:15;18.40;99.90
14884;DHT22;7534;50.762;7.000;2023-07-28T01:48:41;18.50;99.90
14884;DHT22;7534;50.762;7.000;2023-07-28T01:51:06;18.50;99.90
14884;DHT22;7534;50.762;7.000;2023-07-28T01:53:32;18.50;99.90
14884;DHT22;7534;50.762;7.000;2023-07-28T01:55:58;18.50;99.90
14884;DHT22;7534;50.762;7.000;2023-07-28T01:58:23;18.40;99.90
14884;DHT22;7534;50.762;7.000;2023-07-28T02:00:49;18.40;99.90
14884;DHT22;7534;50.762;7.000;2023-07-28T02:03:15;18.40;99.90
14884;DHT22;7534;50.762;7.000;2023-07-28T02:05:40;18.50;99.90
14884;DHT22;7534;50.762;7.000;2023-07-28T02:08:06;18.50;99.90
14884;DHT22;7534;50.762;7.000;2023-07-28T02:10:32;18.60;99.90
14884;DHT22;7534;50.762;7.000;2023-07-28T02:12:57;18.70;99.90
14884;DHT22;7534;50.762;7.000;2023-07-28T02:15:23;18.70;99.90
14884;DHT22;7534;50.762;7.000;2023-07-28T02:17:49;18.70;99.90
14884;DHT22;7534;50.762;7.000;2023-07-28T02:20:14;18.70;99.90
14884;DHT22;7534;50.762;7.000;2023-07-28T02:22:43;18.60;99.90
14884;DHT22;7534;50.762;7.000;2023-07-28T02:25:10;18.50;99.90
14884;DHT22;7534;50.762;7.000;2023-07-28T02:27:36;18.50;99.90
14884;DHT22;7534;50.762;7.000;2023-07-28T02:30:04;18.50;99.90
14884;DHT22;7534;50.762;7.000;2023-07-28T02:32:31;18.50;99.90
14884;DHT22;7534;50.762;7.000;2023-07-28T02:34:58;18.50;99.90
14884;DHT22;7534;50.762;7.000;2023-07-28T02:37:24;18.30;99.90
14884;DHT22;7534;50.762;7.000;2023-07-28T02:39:50;18.40;99.90
14884;DHT22;7534;50.762;7.000;2023-07-28T02:42:17;18.40;99.90
14884;DHT22;7534;50.762;7.000;2023-07-28T02:44:43;18.60;99.90
14884;DHT22;7534;50.762;7.000;2023-07-28T02:47:09;18.50;99.90
14884;DHT22;7534;50.762;7.000;2023-07-28T02:49:34;18.50;99.90
14884;DHT22;7534;50.762;7.000;2023-07-28T02:52:01;18.50;99.90
14884;DHT22;7534;50.762;7.000;2023-07-28T02:54:28;18.50;99.90
14884;DHT22;7534;50.762;7.000;2023-07-28T02:56:54;18.50;99.90
14884;DHT22;7534;50.762;7.000;2023-07-28T02:59:21;18.50;99.90
14884;DHT22;7534;50.762;7.000;2023-07-28T03:01:47;18.60;99.90
14884;DHT22;7534;50.762;7.000;2023-07-28T03:04:13;18.60;99.90
14884;DHT22;7534;50.762;7.000;2023-07-28T03:06:39;18.50;99.90
14884;DHT22;7534;50.762;7.000;2023-07-28T03:09:05;18.40;99.90
14884;DHT22;7534;50.762;7.000;2023-07-28T03:11:30;18.50;99.90
14884;DHT22;7534;50.762;7.000;2023-07-28T03:13:56;18.50;99.90
14884;DHT22;7534;50.762;7.000;2023-07-28T03:16:22;18.50;99.90
14884;DHT22;7534;50.762;7.000;2023-07-28T03:18:48;18.50;99.90
14884;DHT22;7534;50.762;7.000;2023-07-28T03:21:14;18.40;99.90
14884;DHT22;7534;50.762;7.000;2023-07-28T03:23:40;18.40;99.90
14884;DHT22;7534;50.762;7.000;2023-07-28T03:26:06;18.40;99.90
14884;DHT22;7534;50.762;7.000;2023-07-28T03:28:31;18.40;99.90
14884;DHT22;7534;50.762;7.000;2023-07-28T03:30:57;18.40;99.90
14884;DHT22;7534;50.762;7.000;2023-07-28T03:33:23;18.40;99.90
14884;DHT22;7534;50.762;7.000;2023-07-28T03:35:49;18.40;99.90
14884;DHT22;7534;50.762;7.000;2023-07-28T03:38:14;18.40;99.90
14884;DHT22;7534;50.762;7.000;2023-07-28T03:40:40;18.40;99.90
14884;DHT22;7534;50.762;7.000;2023-07-28T03:43:06;18.30;99.90
14884;DHT22;7534;50.762;7.000;2023-07-28T03:45:32;18.40;99.90
14884;DHT22;7534;50.762;7.000;2023-07-28T03:47:57;18.40;99.90
14884;DHT22;7534;50.762;7.000;2023-07-28T03:50:23;18.40;99.90
14884;DHT22;7534;50.762;7.000;2023-07-28T03:52:51;18.50;99.90
14884;DHT22;7534;50.762;7.000;2023-07-28T03:55:17;18.50;99.90
14884;DHT22;7534;50.762;7.000;2023-07-28T03:57:43;18.60;99.90
14884;DHT22;7534;50.762;7.000;2023-07-28T04:00:09;18.70;99.90
14884;DHT22;7534;50.762;7.000;2023-07-28T04:02:35;18.70;99.90
14884;DHT22;7534;50.762;7.000;2023-07-28T04:05:01;18.70;99.90
14884;DHT22;7534;50.762;7.000;2023-07-28T04:07:26;18.80;99.90
14884;DHT22;7534;50.762;7.000;2023-07-28T04:09:52;18.80;99.90
14884;DHT22;7534;50.762;7.000;2023-07-28T04:12:18;18.70;99.90
14884;DHT22;7534;50.762;7.000;2023-07-28T04:14:43;18.70;99.90
14884;DHT22;7534;50.762;7.000;2023-07-28T04:17:09;18.70;99.90
14884;DHT22;7534;50.762;7.000;2023-07-28T04:19:36;18.70;99.90
14884;DHT22;7534;50.762;7.000;2023-07-28T04:22:02;18.80;99.90
14884;DHT22;7534;50.762;7.000;2023-07-28T04:24:28;18.80;99.90
14884;DHT22;7534;50.762;7.000;2023-07-28T04:26:54;18.90;99.90
14884;DHT22;7534;50.762;7.000;2023-07-28T04:29:19;18.80;99.90
14884;DHT22;7534;50.762;7.000;2023-07-28T04:31:45;18.80;99.90
14884;DHT22;7534;50.762;7.000;2023-07-28T04:34:11;18.90;99.90
14884;DHT22;7534;50.762;7.000;2023-07-28T04:36:37;18.90;99.90
14884;DHT22;7534;50.762;7.000;2023-07-28T04:39:02;18.90;99.90
14884;DHT22;7534;50.762;7.000;2023-07-28T04:41:28;18.90;99.90
14884;DHT22;7534;50.762;7.000;2023-07-28T04:43:54;18.90;99.90
14884;DHT22;7534;50.762;7.000;2023-07-28T04:46:20;18.90;99.90
14884;DHT22;7534;50.762;7.000;2023-07-28T04:48:46;18.80;99.90
14884;DHT22;7534;50.762;7.000;2023-07-28T04:51:12;18.80;99.90
14884;DHT22;7534;50.762;7.000;2023-07-28T04:53:37;18.80;99.90
14884;DHT22;7534;50.762;7.000;2023-07-28T04:56:03;18.90;99.90
14884;DHT22;7534;50.762;7.000;2023-07-28T04:58:29;18.80;99.90
14884;DHT22;7534;50.762;7.000;2023-07-28T05:00:55;18.90;99.90
14884;DHT22;7534;50.762;7.000;2023-07-28T05:03:21;18.90;99.90
14884;DHT22;7534;50.762;7.000;2023-07-28T05:05:46;19.00;99.90
14884;DHT22;7534;50.762;7.000;2023-07-28T05:08:12;19.10;99.90
14884;DHT22;7534;50.762;7.000;2023-07-28T05:10:38;19.20;99.90
14884;DHT22;7534;50.762;7.000;2023-07-28T05:13:04;19.30;99.90
14884;DHT22;7534;50.762;7.000;2023-07-28T05:15:30;19.30;99.90
14884;DHT22;7534;50.762;7.000;2023-07-28T05:17:56;19.30;99.90
14884;DHT22;7534;50.762;7.000;2023-07-28T05:20:21;19.40;99.90
14884;DHT22;7534;50.762;7.000;2023-07-28T05:22:47;19.40;99.90
14884;DHT22;7534;50.762;7.000;2023-07-28T05:25:13;19.50;99.90
14884;DHT22;7534;50.762;7.000;2023-07-28T05:27:40;19.50;99.90
14884;DHT22;7534;50.762;7.000;2023-07-28T05:30:06;19.60;99.90
14884;DHT22;7534;50.762;7.000;2023-07-28T05:32:32;19.70;99.90
14884;DHT22;7534;50.762;7.000;2023-07-28T05:35:00;19.60;99.90
14884;DHT22;7534;50.762;7.000;2023-07-28T05:37:26;19.50;99.90
14884;DHT22;7534;50.762;7.000;2023-07-28T05:39:51;19.50;99.90
14884;DHT22;7534;50.762;7.000;2023-07-28T05:42:17;19.60;99.90
14884;DHT22;7534;50.762;7.000;2023-07-28T05:44:43;19.60;99.90
14884;DHT22;7534;50.762;7.000;2023-07-28T05:47:09;19.60;99.90
14884;DHT22;7534;50.762;7.000;2023-07-28T05:49:35;19.50;99.90
14884;DHT22;7534;50.762;7.000;2023-07-28T05:52:01;19.60;99.90
14884;DHT22;7534;50.762;7.000;2023-07-28T05:54:27;19.80;99.90
14884;DHT22;7534;50.762;7.000;2023-07-28T05:56:53;19.90;99.90
14884;DHT22;7534;50.762;7.000;2023-07-28T05:59:18;19.90;99.90
14884;DHT22;7534;50.762;7.000;2023-07-28T06:01:45;20.00;99.90
14884;DHT22;7534;50.762;7.000;2023-07-28T06:04:10;20.00;99.90
14884;DHT22;7534;50.762;7.000;2023-07-28T06:06:36;20.00;99.90
14884;DHT22;7534;50.762;7.000;2023-07-28T06:09:02;20.10;99.90
14884;DHT22;7534;50.762;7.000;2023-07-28T06:11:27;20.10;99.90
14884;DHT22;7534;50.762;7.000;2023-07-28T06:13:53;20.20;99.90
14884;DHT22;7534;50.762;7.000;2023-07-28T06:16:19;20.20;99.90
14884;DHT22;7534;50.762;7.000;2023-07-28T06:18:45;20.20;99.90
14884;DHT22;7534;50.762;7.000;2023-07-28T06:21:10;20.30;99.90
14884;DHT22;7534;50.762;7.000;2023-07-28T06:23:36;20.20;99.90
14884;DHT22;7534;50.762;7.000;2023-07-28T06:26:02;20.50;99.90
14884;DHT22;7534;50.762;7.000;2023-07-28T06:28:27;20.20;99.90
14884;DHT22;7534;50.762;7.000;2023-07-28T06:30:54;20.30;99.90
14884;DHT22;7534;50.762;7.000;2023-07-28T06:33:28;20.40;99.90
14884;DHT22;7534;50.762;7.000;2023-07-28T06:35:54;20.50;99.90
14884;DHT22;7534;50.762;7.000;2023-07-28T06:38:20;20.40;99.90
14884;DHT22;7534;50.762;7.000;2023-07-28T06:40:46;20.70;99.90
14884;DHT22;7534;50.762;7.000;2023-07-28T06:43:11;20.90;99.90
14884;DHT22;7534;50.762;7.000;2023-07-28T06:45:38;21.00;99.90
14884;DHT22;7534;50.762;7.000;2023-07-28T06:48:08;21.10;99.90
14884;DHT22;7534;50.762;7.000;2023-07-28T06:50:33;21.30;99.90
14884;DHT22;7534;50.762;7.000;2023-07-28T06:52:59;21.50;99.90
14884;DHT22;7534;50.762;7.000;2023-07-28T06:55:25;21.80;99.90
14884;DHT22;7534;50.762;7.000;2023-07-28T06:57:50;22.10;99.90
14884;DHT22;7534;50.762;7.000;2023-07-28T07:00:16;22.30;99.90
14884;DHT22;7534;50.762;7.000;2023-07-28T07:02:45;22.40;99.90
14884;DHT22;7534;50.762;7.000;2023-07-28T07:05:10;22.50;99.90
14884;DHT22;7534;50.762;7.000;2023-07-28T07:07:36;22.60;99.90
14884;DHT22;7534;50.762;7.000;2023-07-28T07:10:02;22.70;99.90
14884;DHT22;7534;50.762;7.000;2023-07-28T07:12:30;22.70;99.90
14884;DHT22;7534;50.762;7.000;2023-07-28T07:14:56;22.90;99.90
14884;DHT22;7534;50.762;7.000;2023-07-28T07:17:21;23.00;99.90
14884;DHT22;7534;50.762;7.000;2023-07-28T07:19:47;22.80;99.90
14884;DHT22;7534;50.762;7.000;2023-07-28T07:22:13;23.70;99.90
14884;DHT22;7534;50.762;7.000;2023-07-28T07:24:38;23.50;99.90
14884;DHT22;7534;50.762;7.000;2023-07-28T07:27:05;23.90;99.90
14884;DHT22;7534;50.762;7.000;2023-07-28T07:29:31;24.10;99.90
14884;DHT22;7534;50.762;7.000;2023-07-28T07:31:56;24.50;99.90
14884;DHT22;7534;50.762;7.000;2023-07-28T07:34:23;24.60;99.90
14884;DHT22;7534;50.762;7.000;2023-07-28T07:36:49;24.90;99.90
14884;DHT22;7534;50.762;7.000;2023-07-28T07:39:16;24.90;99.90
14884;DHT22;7534;50.762;7.000;2023-07-28T07:41:41;24.90;99.90
14884;DHT22;7534;50.762;7.000;2023-07-28T07:44:07;25.10;99.90
14884;DHT22;7534;50.762;7.000;2023-07-28T07:46:33;25.30;99.90
14884;DHT22;7534;50.762;7.000;2023-07-28T07:48:58;25.50;99.90
14884;DHT22;7534;50.762;7.000;2023-07-28T07:51:24;25.30;99.90
14884;DHT22;7534;50.762;7.000;2023-07-28T07:53:50;25.50;99.90
14884;DHT22;7534;50.762;7.000;2023-07-28T07:56:16;25.60;99.90
14884;DHT22;7534;50.762;7.000;2023-07-28T07:58:42;25.40;99.90
14884;DHT22;7534;50.762;7.000;2023-07-28T08:01:08;25.90;99.90
14884;DHT22;7534;50.762;7.000;2023-07-28T08:03:34;25.70;99.90
14884;DHT22;7534;50.762;7.000;2023-07-28T08:06:01;25.70;99.90
14884;DHT22;7534;50.762;7.000;2023-07-28T08:08:27;25.70;99.90
14884;DHT22;7534;50.762;7.000;2023-07-28T08:10:53;25.40;99.90
14884;DHT22;7534;50.762;7.000;2023-07-28T08:13:29;25.60;99.90
14884;DHT22;7534;50.762;7.000;2023-07-28T08:16:02;25.30;99.90
14884;DHT22;7534;50.762;7.000;2023-07-28T08:18:27;25.20;99.90
14884;DHT22;7534;50.762;7.000;2023-07-28T08:20:53;25.30;99.90
14884;DHT22;7534;50.762;7.000;2023-07-28T08:23:19;25.20;99.90
14884;DHT22;7534;50.762;7.000;2023-07-28T08:25:45;25.00;99.90
14884;DHT22;7534;50.762;7.000;2023-07-28T08:28:11;25.20;99.90
14884;DHT22;7534;50.762;7.000;2023-07-28T08:30:37;25.50;99.90
14884;DHT22;7534;50.762;7.000;2023-07-28T08:33:03;25.70;99.90
14884;DHT22;7534;50.762;7.000;2023-07-28T08:35:29;26.10;99.90
14884;DHT22;7534;50.762;7.000;2023-07-28T08:37:55;27.30;99.90
14884;DHT22;7534;50.762;7.000;2023-07-28T08:40:21;27.40;99.90
14884;DHT22;7534;50.762;7.000;2023-07-28T08:42:46;29.00;97.00
14884;DHT22;7534;50.762;7.000;2023-07-28T08:45:15;29.20;97.20
14884;DHT22;7534;50.762;7.000;2023-07-28T08:47:40;30.10;96.30
14884;DHT22;7534;50.762;7.000;2023-07-28T08:50:06;30.80;95.70
14884;DHT22;7534;50.762;7.000;2023-07-28T08:52:32;31.30;93.40
14884;DHT22;7534;50.762;7.000;2023-07-28T08:54:58;32.40;92.20
14884;DHT22;7534;50.762;7.000;2023-07-28T08:57:24;34.20;99.90
14884;DHT22;7534;50.762;7.000;2023-07-28T08:59:49;34.70;98.00
14884;DHT22;7534;50.762;7.000;2023-07-28T09:02:18;34.10;99.00
14884;DHT22;7534;50.762;7.000;2023-07-28T09:04:48;33.60;99.90
14884;DHT22;7534;50.762;7.000;2023-07-28T09:07:14;33.10;96.80
14884;DHT22;7534;50.762;7.000;2023-07-28T09:09:40;32.40;98.30
14884;DHT22;7534;50.762;7.000;2023-07-28T09:12:07;31.80;99.90
14884;DHT22;7534;50.762;7.000;2023-07-28T09:14:36;31.00;99.90
14884;DHT22;7534;50.762;7.000;2023-07-28T09:17:10;30.60;99.90
14884;DHT22;7534;50.762;7.000;2023-07-28T09:19:50;30.40;99.90
14884;DHT22;7534;50.762;7.000;2023-07-28T09:22:17;30.00;99.90
14884;DHT22;7534;50.762;7.000;2023-07-28T09:24:44;30.20;90.60
14884;DHT22;7534;50.762;7.000;2023-07-28T09:27:20;29.20;91.10
14884;DHT22;7534;50.762;7.000;2023-07-28T09:29:51;28.70;91.60
14884;DHT22;7534;50.762;7.000;2023-07-28T09:32:28;27.90;92.90
14884;DHT22;7534;50.762;7.000;2023-07-28T09:35:06;27.10;94.90
14884;DHT22;7534;50.762;7.000;2023-07-28T09:37:38;26.80;96.60
14884;DHT22;7534;50.762;7.000;2023-07-28T09:40:07;27.30;96.70
14884;DHT22;7534;50.762;7.000;2023-07-28T09:42:37;27.90;95.40
14884;DHT22;7534;50.762;7.000;2023-07-28T09:45:05;28.20;94.20
14884;DHT22;7534;50.762;7.000;2023-07-28T09:47:34;28.50;94.00
14884;DHT22;7534;50.762;7.000;2023-07-28T09:50:05;28.40;93.30
14884;DHT22;7534;50.762;7.000;2023-07-28T09:52:38;28.50;93.00
14884;DHT22;7534;50.762;7.000;2023-07-28T09:55:08;28.00;92.50
14884;DHT22;7534;50.762;7.000;2023-07-28T09:57:45;27.80;93.60
14884;DHT22;7534;50.762;7.000;2023-07-28T10:00:15;27.80;94.20
14884;DHT22;7534;50.762;7.000;2023-07-28T10:02:42;27.70;94.30
14884;DHT22;7534;50.762;7.000;2023-07-28T10:05:09;27.80;94.20
14884;DHT22;7534;50.762;7.000;2023-07-28T10:07:39;27.70;94.60
14884;DHT22;7534;50.762;7.000;2023-07-28T10:10:08;27.90;94.40
14884;DHT22;7534;50.762;7.000;2023-07-28T10:12:50;28.10;93.60
14884;DHT22;7534;50.762;7.000;2023-07-28T10:15:20;28.00;93.40
14884;DHT22;7534;50.762;7.000;2023-07-28T10:17:54;28.00;93.30
14884;DHT22;7534;50.762;7.000;2023-07-28T10:23:15;28.00;94.40
14884;DHT22;7534;50.762;7.000;2023-07-28T10:25:59;27.90;94.40
14884;DHT22;7534;50.762;7.000;2023-07-28T10:28:44;27.50;94.90
14884;DHT22;7534;50.762;7.000;2023-07-28T10:31:11;27.20;95.50
14884;DHT22;7534;50.762;7.000;2023-07-28T10:33:39;26.60;96.70
14884;DHT22;7534;50.762;7.000;2023-07-28T10:36:31;26.20;97.70
14884;DHT22;7534;50.762;7.000;2023-07-28T10:39:13;25.90;98.80
14884;DHT22;7534;50.762;7.000;2023-07-28T10:42:05;25.50;99.90
14884;DHT22;7534;50.762;7.000;2023-07-28T10:44:34;25.50;99.90
14884;DHT22;7534;50.762;7.000;2023-07-28T10:47:00;25.80;99.90
14884;DHT22;7534;50.762;7.000;2023-07-28T10:49:27;26.20;99.80
14884;DHT22;7534;50.762;7.000;2023-07-28T10:51:54;27.30;98.50
14884;DHT22;7534;50.762;7.000;2023-07-28T10:54:20;28.10;96.40
14884;DHT22;7534;50.762;7.000;2023-07-28T10:56:47;28.20;94.80
14884;DHT22;7534;50.762;7.000;2023-07-28T10:59:14;28.30;95.40
14884;DHT22;7534;50.762;7.000;2023-07-28T11:01:42;28.30;94.90
14884;DHT22;7534;50.762;7.000;2023-07-28T11:04:15;28.50;95.00
14884;DHT22;7534;50.762;7.000;2023-07-28T11:06:43;28.70;95.10
14884;DHT22;7534;50.762;7.000;2023-07-28T11:09:11;28.50;94.10
14884;DHT22;7534;50.762;7.000;2023-07-28T11:11:39;28.30;94.50
14884;DHT22;7534;50.762;7.000;2023-07-28T11:14:08;28.50;94.40
14884;DHT22;7534;50.762;7.000;2023-07-28T11:16:41;29.00;94.00
14884;DHT22;7534;50.762;7.000;2023-07-28T11:19:09;29.40;92.50
14884;DHT22;7534;50.762;7.000;2023-07-28T11:21:49;29.70;91.30
14884;DHT22;7534;50.762;7.000;2023-07-28T11:24:20;29.60;91.90
14884;DHT22;7534;50.762;7.000;2023-07-28T11:26:46;29.70;92.00
14884;DHT22;7534;50.762;7.000;2023-07-28T11:29:13;29.90;91.80
14884;DHT22;7534;50.762;7.000;2023-07-28T11:31:41;30.10;91.10
14884;DHT22;7534;50.762;7.000;2023-07-28T11:34:19;29.80;91.10
14884;DHT22;7534;50.762;7.000;2023-07-28T11:36:45;29.40;91.40
14884;DHT22;7534;50.762;7.000;2023-07-28T11:39:11;29.40;91.80
14884;DHT22;7534;50.762;7.000;2023-07-28T11:41:38;29.60;92.20
14884;DHT22;7534;50.762;7.000;2023-07-28T11:44:06;30.00;91.70
14884;DHT22;7534;50.762;7.000;2023-07-28T11:46:36;30.20;91.20
14884;DHT22;7534;50.762;7.000;2023-07-28T11:49:13;30.10;90.20
14884;DHT22;7534;50.762;7.000;2023-07-28T11:51:41;29.70;91.40
14884;DHT22;7534;50.762;7.000;2023-07-28T11:54:12;29.40;91.40
14884;DHT22;7534;50.762;7.000;2023-07-28T11:56:44;29.10;91.70
14884;DHT22;7534;50.762;7.000;2023-07-28T11:59:12;28.80;92.60
14884;DHT22;7534;50.762;7.000;2023-07-28T12:02:01;28.60;92.30
14884;DHT22;7534;50.762;7.000;2023-07-28T12:04:36;28.00;92.20
14884;DHT22;7534;50.762;7.000;2023-07-28T12:07:06;28.10;92.70
14884;DHT22;7534;50.762;7.000;2023-07-28T12:12:12;29.00;91.30
14884;DHT22;7534;50.762;7.000;2023-07-28T12:14:38;29.80;89.50
14884;DHT22;7534;50.762;7.000;2023-07-28T12:17:25;30.30;86.90
14884;DHT22;7534;50.762;7.000;2023-07-28T12:20:05;30.70;86.30
14884;DHT22;7534;50.762;7.000;2023-07-28T12:22:37;30.90;85.70
14884;DHT22;7534;50.762;7.000;2023-07-28T12:25:04;30.50;83.80
14884;DHT22;7534;50.762;7.000;2023-07-28T12:27:30;30.30;87.30
14884;DHT22;7534;50.762;7.000;2023-07-28T12:29:56;30.80;83.70
14884;DHT22;7534;50.762;7.000;2023-07-28T12:32:22;31.10;83.70
14884;DHT22;7534;50.762;7.000;2023-07-28T12:34:50;30.90;82.40
14884;DHT22;7534;50.762;7.000;2023-07-28T12:37:17;31.40;83.10
14884;DHT22;7534;50.762;7.000;2023-07-28T12:39:44;31.90;80.00
14884;DHT22;7534;50.762;7.000;2023-07-28T12:42:10;32.10;79.10
14884;DHT22;7534;50.762;7.000;2023-07-28T12:44:40;32.20;77.50
14884;DHT22;7534;50.762;7.000;2023-07-28T12:47:07;32.10;78.20
14884;DHT22;7534;50.762;7.000;2023-07-28T12:49:33;32.20;79.40
14884;DHT22;7534;50.762;7.000;2023-07-28T12:52:04;31.70;78.20
14884;DHT22;7534;50.762;7.000;2023-07-28T12:54:34;31.30;78.60
14884;DHT22;7534;50.762;7.000;2023-07-28T12:57:00;30.90;80.90
14884;DHT22;7534;50.762;7.000;2023-07-28T12:59:27;30.90;81.40
14884;DHT22;7534;50.762;7.000;2023-07-28T13:01:55;30.60;80.90
14884;DHT22;7534;50.762;7.000;2023-07-28T13:04:20;30.90;82.90
14884;DHT22;7534;50.762;7.000;2023-07-28T13:06:46;31.10;82.00
14884;DHT22;7534;50.762;7.000;2023-07-28T13:09:12;31.10;80.70
14884;DHT22;7534;50.762;7.000;2023-07-28T13:11:38;31.00;81.10
14884;DHT22;7534;50.762;7.000;2023-07-28T13:14:04;31.40;81.50
14884;DHT22;7534;50.762;7.000;2023-07-28T13:16:29;31.60;78.70
14884;DHT22;7534;50.762;7.000;2023-07-28T13:18:56;31.80;78.00
14884;DHT22;7534;50.762;7.000;2023-07-28T13:21:23;32.10;77.20
14884;DHT22;7534;50.762;7.000;2023-07-28T13:23:49;31.80;76.50
14884;DHT22;7534;50.762;7.000;2023-07-28T13:26:14;31.80;77.50
14884;DHT22;7534;50.762;7.000;2023-07-28T13:28:40;31.50;76.90
14884;DHT22;7534;50.762;7.000;2023-07-28T13:31:18;31.10;78.80
14884;DHT22;7534;50.762;7.000;2023-07-28T13:33:44;30.60;80.30
14884;DHT22;7534;50.762;7.000;2023-07-28T13:36:14;30.10;82.30
14884;DHT22;7534;50.762;7.000;2023-07-28T13:38:40;29.40;85.40
14884;DHT22;7534;50.762;7.000;2023-07-28T13:41:06;28.90;89.10
14884;DHT22;7534;50.762;7.000;2023-07-28T13:43:34;28.40;91.30
14884;DHT22;7534;50.762;7.000;2023-07-28T13:46:04;27.70;93.70
14884;DHT22;7534;50.762;7.000;2023-07-28T13:48:30;26.60;97.20
14884;DHT22;7534;50.762;7.000;2023-07-28T13:51:00;25.90;98.90
14884;DHT22;7534;50.762;7.000;2023-07-28T13:53:25;25.30;99.90
14884;DHT22;7534;50.762;7.000;2023-07-28T13:55:54;24.70;99.90
14884;DHT22;7534;50.762;7.000;2023-07-28T13:58:20;23.90;99.90
14884;DHT22;7534;50.762;7.000;2023-07-28T14:00:46;23.10;99.90
14884;DHT22;7534;50.762;7.000;2023-07-28T14:03:12;22.80;99.90
14884;DHT22;7534;50.762;7.000;2023-07-28T14:05:39;22.90;99.90
14884;DHT22;7534;50.762;7.000;2023-07-28T14:08:05;22.80;99.90
14884;DHT22;7534;50.762;7.000;2023-07-28T14:10:31;22.30;99.90
14884;DHT22;7534;50.762;7.000;2023-07-28T14:13:00;22.10;99.90
14884;DHT22;7534;50.762;7.000;2023-07-28T14:15:26;22.10;99.90
14884;DHT22;7534;50.762;7.000;2023-07-28T14:17:51;22.30;99.90
14884;DHT22;7534;50.762;7.000;2023-07-28T14:20:17;22.50;99.90
14884;DHT22;7534;50.762;7.000;2023-07-28T14:22:43;22.70;99.90
14884;DHT22;7534;50.762;7.000;2023-07-28T14:25:09;22.80;99.90
14884;DHT22;7534;50.762;7.000;2023-07-28T14:27:34;23.30;99.90
14884;DHT22;7534;50.762;7.000;2023-07-28T14:30:00;24.40;99.90
14884;DHT22;7534;50.762;7.000;2023-07-28T14:32:26;25.50;99.90
14884;DHT22;7534;50.762;7.000;2023-07-28T14:34:51;26.40;99.90
14884;DHT22;7534;50.762;7.000;2023-07-28T14:37:17;26.70;99.90
14884;DHT22;7534;50.762;7.000;2023-07-28T14:39:43;26.80;99.90
14884;DHT22;7534;50.762;7.000;2023-07-28T14:42:09;26.90;99.90
14884;DHT22;7534;50.762;7.000;2023-07-28T14:44:35;26.70;99.90
14884;DHT22;7534;50.762;7.000;2023-07-28T14:47:01;26.70;99.90
14884;DHT22;7534;50.762;7.000;2023-07-28T14:49:27;26.70;99.90
14884;DHT22;7534;50.762;7.000;2023-07-28T14:51:54;27.00;99.90
14884;DHT22;7534;50.762;7.000;2023-07-28T14:54:20;27.10;99.90
14884;DHT22;7534;50.762;7.000;2023-07-28T14:56:46;27.30;99.90
14884;DHT22;7534;50.762;7.000;2023-07-28T14:59:11;27.00;99.90
14884;DHT22;7534;50.762;7.000;2023-07-28T15:01:37;27.20;99.90
14884;DHT22;7534;50.762;7.000;2023-07-28T15:04:03;27.30;99.90
14884;DHT22;7534;50.762;7.000;2023-07-28T15:06:30;27.30;99.90
14884;DHT22;7534;50.762;7.000;2023-07-28T15:08:56;27.50;99.90
14884;DHT22;7534;50.762;7.000;2023-07-28T15:11:22;27.80;99.90
14884;DHT22;7534;50.762;7.000;2023-07-28T15:13:49;28.20;99.90
14884;DHT22;7534;50.762;7.000;2023-07-28T15:16:15;28.80;99.70
14884;DHT22;7534;50.762;7.000;2023-07-28T15:18:41;29.50;98.40
14884;DHT22;7534;50.762;7.000;2023-07-28T15:21:07;30.00;97.70
14884;DHT22;7534;50.762;7.000;2023-07-28T15:23:33;30.30;95.70
14884;DHT22;7534;50.762;7.000;2023-07-28T15:25:58;30.30;96.10
14884;DHT22;7534;50.762;7.000;2023-07-28T15:28:24;30.30;95.50
14884;DHT22;7534;50.762;7.000;2023-07-28T15:30:50;30.50;95.00
14884;DHT22;7534;50.762;7.000;2023-07-28T15:33:18;30.50;95.60
14884;DHT22;7534;50.762;7.000;2023-07-28T15:35:45;30.40;95.00
14884;DHT22;7534;50.762;7.000;2023-07-28T15:38:13;30.40;95.40
14884;DHT22;7534;50.762;7.000;2023-07-28T15:40:39;30.50;94.90
14884;DHT22;7534;50.762;7.000;2023-07-28T15:43:04;30.60;94.70
14884;DHT22;7534;50.762;7.000;2023-07-28T15:45:31;30.50;95.00
14884;DHT22;7534;50.762;7.000;2023-07-28T15:47:58;30.50;94.20
14884;DHT22;7534;50.762;7.000;2023-07-28T15:50:24;30.50;93.90
14884;DHT22;7534;50.762;7.000;2023-07-28T15:52:50;30.60;94.20